09:08
Airports
History
Links
Donate
Help keep this website running!
PayPal
Bitcoin
This page is community maintained. The information is intended for PC simulator navigation or reference.
Always use approved charts for navigation.
ETND
Diepholz
Diepholz (ETND)
Diepholz, Niedersachsen, Germany (49356)
(C)
Lat/Lng:52° 35' 8.61" N / 8° 20' 27.73" E
52.585725 / 8.341035
Elevation:127'ft / 39mMSL
ID / ICAO:ETND
Runways:1
Longest:08-26
Asphalt 1,288m / 4,224ft
Controlled:Yes
METAR10:20 GMT 2018-02-16
Altimeter: 30.21
Visibility: 6.2 statute miles
Wind: 12 knots (from 260°)
Temp: 4°c / 39°f
Humidity: 86.8%

METAR: ETND 161020Z 26012KT 9999 FEW020 04/02 Q1023 BLU+

(Powered by phpweather)
Airport Radio Frequencies
Tower: 119.82, 122.1
Approach: 124.65
Nearby VORs <50NM
Nearby NDBs
Runway 08 / 26
Dimensions:1287.5 x 45.1m 4224' x 148'ft
Surface:Asphalt
Edge Lights:High intensity
Runway 08 [A]Runway 26 [B]
Heading:084°TH 264°TH
Lat:
Lng:
52° 35' 6.62"N
8° 19' 53.5"E
52° 35' 10.6"N
8° 21' 1.95"E
ALS:Calvert
User Notes and Comments
52° 35' 8.61" N / 8° 20' 27.73" E
Distance To
Airport ID:
Nearby Airports
(U) Damme 9.4 NM
EDWC SW 223°
(C) Bohmte-Bad Essen 16.2 NM
EDXD S 181°
(C) Achmer 23.0 NM
EDXA SW 231°
(C) Varrelbusch 25.5 NM
EDWU NNW 330°
(U) Osnabrueck Atterheide 25.8 NM
EDWO SW 216°
(U) Melle Groengau 26.6 NM
EDXG S 176°
(C) Ganderkesee Atlas Airfield 32.0 NM
EDWQ NNE 12°
VFR Chart
Flight Planning at SkyVector.com